EZY34V EDDF-EHAM
Flight info
| Callsign | EZY34V |
|---|---|
| Flight time | 0h 52m |
| Altitude | 24000 |
| Route | MARUN8M/25C MARUN Y152 ARPEG Z850 ABILU DCT NORKU |
| Aircraft | A20N/M-SDE2E3FGHIRWXY/LB1 |
Departure
| Time | 2026-05-05 18:27 |
|---|---|
| Airport | Frankfurt Main Airport (EDDF) |
Arrival
| Time | 2026-05-05 19:19 |
|---|---|
| Airport | Amsterdam Airport Schiphol (EHAM) |
| Time | Latitude | Longitude | Altitude | Speed | Heading |
|---|---|---|---|---|---|
| 2026-05-05 18:01 | 50.04707 | 8.56838 | 356 ft | 0 kts | 295° |
| 2026-05-05 18:12 | 50.04704 | 8.56847 | 356 ft | 2 kts | 295° |
| 2026-05-05 18:12 | 50.04700 | 8.56859 | 364 ft | 1 kts | 295° |
| 2026-05-05 18:13 | 50.04697 | 8.56872 | 362 ft | 2 kts | 295° |
| 2026-05-05 18:13 | 50.04691 | 8.56893 | 359 ft | 2 kts | 292° |
| 2026-05-05 18:13 | 50.04686 | 8.56910 | 362 ft | 1 kts | 290° |
| 2026-05-05 18:13 | 50.04682 | 8.56928 | 363 ft | 2 kts | 276° |
| 2026-05-05 18:14 | 50.04682 | 8.56951 | 361 ft | 2 kts | 235° |
| 2026-05-05 18:14 | 50.04687 | 8.56961 | 362 ft | 0 kts | 200° |
| 2026-05-05 18:17 | 50.04687 | 8.56960 | 362 ft | 1 kts | 200° |
| 2026-05-05 18:17 | 50.04674 | 8.56952 | 359 ft | 3 kts | 203° |
| 2026-05-05 18:17 | 50.04646 | 8.56932 | 361 ft | 6 kts | 205° |
| 2026-05-05 18:18 | 50.04599 | 8.56909 | 357 ft | 8 kts | 193° |
| 2026-05-05 18:18 | 50.04550 | 8.56890 | 361 ft | 7 kts | 193° |
| 2026-05-05 18:18 | 50.04498 | 8.56872 | 359 ft | 9 kts | 193° |
| 2026-05-05 18:18 | 50.04432 | 8.56851 | 359 ft | 11 kts | 189° |
| 2026-05-05 18:19 | 50.04359 | 8.56832 | 360 ft | 10 kts | 191° |
| 2026-05-05 18:19 | 50.04297 | 8.56827 | 364 ft | 9 kts | 159° |
| 2026-05-05 18:19 | 50.04276 | 8.56892 | 359 ft | 8 kts | 84° |
| 2026-05-05 18:19 | 50.04298 | 8.56993 | 362 ft | 11 kts | 69° |
| 2026-05-05 18:20 | 50.04327 | 8.57110 | 364 ft | 12 kts | 69° |
| 2026-05-05 18:20 | 50.04358 | 8.57243 | 366 ft | 12 kts | 70° |
| 2026-05-05 18:20 | 50.04385 | 8.57356 | 365 ft | 13 kts | 69° |
| 2026-05-05 18:20 | 50.04417 | 8.57490 | 363 ft | 14 kts | 69° |
| 2026-05-05 18:21 | 50.04447 | 8.57618 | 367 ft | 11 kts | 70° |
| 2026-05-05 18:21 | 50.04477 | 8.57746 | 365 ft | 14 kts | 70° |
| 2026-05-05 18:21 | 50.04511 | 8.57885 | 365 ft | 15 kts | 69° |
| 2026-05-05 18:21 | 50.04551 | 8.58049 | 364 ft | 16 kts | 70° |
| 2026-05-05 18:22 | 50.04583 | 8.58186 | 367 ft | 13 kts | 70° |
| 2026-05-05 18:22 | 50.04607 | 8.58284 | 370 ft | 9 kts | 69° |
| 2026-05-05 18:22 | 50.04630 | 8.58381 | 372 ft | 11 kts | 69° |
| 2026-05-05 18:22 | 50.04654 | 8.58490 | 370 ft | 7 kts | 81° |
| 2026-05-05 18:23 | 50.04655 | 8.58504 | 368 ft | 2 kts | 86° |
| 2026-05-05 18:23 | 50.04651 | 8.58542 | 368 ft | 5 kts | 111° |
| 2026-05-05 18:23 | 50.04610 | 8.58579 | 369 ft | 8 kts | 158° |
| 2026-05-05 18:23 | 50.04606 | 8.58582 | 369 ft | 0 kts | 158° |
| 2026-05-05 18:25 | 50.04599 | 8.58587 | 372 ft | 2 kts | 158° |
| 2026-05-05 18:25 | 50.04593 | 8.58590 | 371 ft | 1 kts | 158° |
| 2026-05-05 18:25 | 50.04570 | 8.58604 | 373 ft | 4 kts | 158° |
| 2026-05-05 18:25 | 50.04540 | 8.58623 | 373 ft | 5 kts | 158° |
| 2026-05-05 18:26 | 50.04499 | 8.58620 | 370 ft | 7 kts | 200° |
| 2026-05-05 18:26 | 50.04469 | 8.58541 | 370 ft | 16 kts | 251° |
| 2026-05-05 18:26 | 50.04347 | 8.58006 | 369 ft | 86 kts | 249° |
| 2026-05-05 18:26 | 50.04072 | 8.56848 | 363 ft | 139 kts | 250° |
| 2026-05-05 18:27 | 50.03737 | 8.55447 | 391 ft | 175 kts | 250° |
| 2026-05-05 18:27 | 50.03312 | 8.53626 | 870 ft | 190 kts | 250° |
| 2026-05-05 18:27 | 50.02936 | 8.52046 | 1234 ft | 197 kts | 250° |
| 2026-05-05 18:27 | 50.02484 | 8.50271 | 1532 ft | 222 kts | 242° |
| 2026-05-05 18:28 | 49.99835 | 8.47779 | 3249 ft | 220 kts | 193° |
| 2026-05-05 18:28 | 49.98390 | 8.47457 | 3733 ft | 210 kts | 186° |
| 2026-05-05 18:28 | 49.96837 | 8.47199 | 4124 ft | 239 kts | 189° |
| 2026-05-05 18:29 | 49.95213 | 8.46655 | 5079 ft | 236 kts | 198° |
| 2026-05-05 18:29 | 49.93635 | 8.45934 | 6109 ft | 238 kts | 198° |
| 2026-05-05 18:29 | 49.92191 | 8.44804 | 6947 ft | 240 kts | 222° |
| 2026-05-05 18:29 | 49.91217 | 8.42640 | 7870 ft | 244 kts | 250° |
| 2026-05-05 18:30 | 49.91032 | 8.40081 | 8733 ft | 250 kts | 276° |
| 2026-05-05 18:30 | 49.91522 | 8.37470 | 9625 ft | 258 kts | 297° |
| 2026-05-05 18:30 | 49.92753 | 8.35403 | 10436 ft | 269 kts | 324° |
| 2026-05-05 18:30 | 49.94482 | 8.34140 | 11111 ft | 283 kts | 335° |
| 2026-05-05 18:31 | 49.96398 | 8.32994 | 11452 ft | 307 kts | 336° |
| 2026-05-05 18:31 | 49.98446 | 8.31774 | 11738 ft | 330 kts | 336° |
| 2026-05-05 18:31 | 50.00650 | 8.30406 | 12087 ft | 348 kts | 335° |
| 2026-05-05 18:31 | 50.02928 | 8.29055 | 12850 ft | 355 kts | 342° |
| 2026-05-05 18:32 | 50.05405 | 8.28598 | 13656 ft | 364 kts | 0° |
| 2026-05-05 18:32 | 50.07911 | 8.29365 | 14337 ft | 372 kts | 17° |
| 2026-05-05 18:32 | 50.10382 | 8.30660 | 15035 ft | 376 kts | 18° |
| 2026-05-05 18:32 | 50.12879 | 8.31982 | 15743 ft | 380 kts | 18° |
| 2026-05-05 18:33 | 50.15397 | 8.33308 | 16443 ft | 385 kts | 19° |
| 2026-05-05 18:33 | 50.17977 | 8.34664 | 16753 ft | 400 kts | 19° |
| 2026-05-05 18:33 | 50.20682 | 8.36085 | 16839 ft | 420 kts | 19° |
| 2026-05-05 18:33 | 50.23520 | 8.37578 | 16839 ft | 439 kts | 19° |
| 2026-05-05 18:34 | 50.26378 | 8.39083 | 16836 ft | 424 kts | 19° |
| 2026-05-05 18:34 | 50.29077 | 8.40505 | 16876 ft | 402 kts | 19° |
| 2026-05-05 18:34 | 50.31655 | 8.41881 | 16872 ft | 385 kts | 19° |
| 2026-05-05 18:34 | 50.34176 | 8.43257 | 16611 ft | 384 kts | 19° |
| 2026-05-05 18:35 | 50.36700 | 8.44635 | 16599 ft | 385 kts | 20° |
| 2026-05-05 18:35 | 50.39248 | 8.46029 | 17043 ft | 389 kts | 20° |
| 2026-05-05 18:35 | 50.41803 | 8.47427 | 17854 ft | 390 kts | 20° |
| 2026-05-05 18:35 | 50.44374 | 8.48835 | 18449 ft | 394 kts | 20° |
| 2026-05-05 18:36 | 50.46981 | 8.50265 | 19071 ft | 397 kts | 20° |
| 2026-05-05 18:36 | 50.49611 | 8.51651 | 19677 ft | 400 kts | 19° |
| 2026-05-05 18:36 | 50.52280 | 8.52925 | 20271 ft | 404 kts | 18° |
| 2026-05-05 18:36 | 50.54959 | 8.54168 | 20864 ft | 407 kts | 18° |
| 2026-05-05 18:37 | 50.57699 | 8.55446 | 21411 ft | 411 kts | 18° |
| 2026-05-05 18:37 | 50.60483 | 8.56504 | 21945 ft | 416 kts | 7° |
| 2026-05-05 18:37 | 50.63360 | 8.56457 | 22491 ft | 421 kts | 351° |
| 2026-05-05 18:37 | 50.66194 | 8.55214 | 23032 ft | 425 kts | 338° |
| 2026-05-05 18:38 | 50.68920 | 8.53365 | 23529 ft | 429 kts | 335° |
| 2026-05-05 18:38 | 50.71644 | 8.51394 | 23742 ft | 431 kts | 335° |
| 2026-05-05 18:38 | 50.74379 | 8.49427 | 23803 ft | 431 kts | 335° |
| 2026-05-05 18:38 | 50.77125 | 8.47493 | 23810 ft | 431 kts | 336° |
| 2026-05-05 18:39 | 50.79876 | 8.45588 | 23831 ft | 431 kts | 336° |
| 2026-05-05 18:39 | 50.82627 | 8.43699 | 23815 ft | 431 kts | 336° |
| 2026-05-05 18:39 | 50.85378 | 8.41816 | 23808 ft | 431 kts | 336° |
| 2026-05-05 18:39 | 50.88128 | 8.39935 | 23809 ft | 431 kts | 336° |
| 2026-05-05 18:40 | 50.90884 | 8.38046 | 23811 ft | 431 kts | 336° |
| 2026-05-05 18:40 | 50.93628 | 8.36161 | 23813 ft | 430 kts | 336° |
| 2026-05-05 18:40 | 50.96384 | 8.34266 | 23813 ft | 431 kts | 336° |
| 2026-05-05 18:40 | 50.99132 | 8.32374 | 23817 ft | 431 kts | 336° |
| 2026-05-05 18:41 | 51.01868 | 8.30422 | 23815 ft | 431 kts | 333° |
| 2026-05-05 18:41 | 51.04460 | 8.28132 | 23817 ft | 431 kts | 330° |
| 2026-05-05 18:41 | 51.07116 | 8.25763 | 23818 ft | 432 kts | 330° |
| 2026-05-05 18:41 | 51.09706 | 8.23462 | 23815 ft | 432 kts | 330° |
| 2026-05-05 18:42 | 51.12363 | 8.21102 | 23825 ft | 432 kts | 330° |
| 2026-05-05 18:42 | 51.14985 | 8.18771 | 23822 ft | 432 kts | 330° |
| 2026-05-05 18:42 | 51.17574 | 8.16465 | 23826 ft | 432 kts | 330° |
| 2026-05-05 18:42 | 51.20198 | 8.14122 | 23821 ft | 432 kts | 330° |
| 2026-05-05 18:43 | 51.22820 | 8.11777 | 23825 ft | 432 kts | 330° |
| 2026-05-05 18:43 | 51.25443 | 8.09427 | 23829 ft | 432 kts | 330° |
| 2026-05-05 18:43 | 51.28069 | 8.07072 | 23826 ft | 432 kts | 330° |
| 2026-05-05 18:43 | 51.30687 | 8.04721 | 23827 ft | 432 kts | 329° |
| 2026-05-05 18:44 | 51.33311 | 8.02364 | 23826 ft | 432 kts | 329° |
| 2026-05-05 18:44 | 51.35945 | 7.99992 | 23829 ft | 432 kts | 329° |
| 2026-05-05 18:44 | 51.38566 | 7.97628 | 23831 ft | 432 kts | 329° |
| 2026-05-05 18:44 | 51.41121 | 7.95227 | 23828 ft | 431 kts | 325° |
| 2026-05-05 18:45 | 51.43548 | 7.92396 | 23828 ft | 431 kts | 321° |
| 2026-05-05 18:45 | 51.45955 | 7.89520 | 23829 ft | 431 kts | 322° |
| 2026-05-05 18:45 | 51.48362 | 7.86661 | 23826 ft | 431 kts | 322° |
| 2026-05-05 18:45 | 51.50774 | 7.83794 | 23831 ft | 431 kts | 322° |
| 2026-05-05 18:46 | 51.53181 | 7.80927 | 23830 ft | 431 kts | 322° |
| 2026-05-05 18:46 | 51.55588 | 7.78054 | 23832 ft | 431 kts | 321° |
| 2026-05-05 18:46 | 51.57985 | 7.75188 | 23829 ft | 428 kts | 321° |
| 2026-05-05 18:46 | 51.60381 | 7.72316 | 23833 ft | 428 kts | 321° |
| 2026-05-05 18:47 | 51.62762 | 7.69456 | 23832 ft | 428 kts | 321° |
| 2026-05-05 18:47 | 51.65150 | 7.66586 | 23831 ft | 428 kts | 321° |
| 2026-05-05 18:47 | 51.67506 | 7.63752 | 23832 ft | 428 kts | 321° |
| 2026-05-05 18:47 | 51.69898 | 7.60870 | 23833 ft | 428 kts | 321° |
| 2026-05-05 18:48 | 51.72283 | 7.57992 | 23833 ft | 428 kts | 321° |
| 2026-05-05 18:48 | 51.74670 | 7.55108 | 23834 ft | 428 kts | 321° |
| 2026-05-05 18:48 | 51.77054 | 7.52225 | 23837 ft | 428 kts | 321° |
| 2026-05-05 18:48 | 51.79431 | 7.49345 | 23842 ft | 428 kts | 321° |
| 2026-05-05 18:49 | 51.81799 | 7.46473 | 23844 ft | 427 kts | 321° |
| 2026-05-05 18:49 | 51.84165 | 7.43600 | 23843 ft | 425 kts | 321° |
| 2026-05-05 18:49 | 51.86535 | 7.40717 | 23853 ft | 426 kts | 321° |
| 2026-05-05 18:49 | 51.88903 | 7.37832 | 23853 ft | 426 kts | 321° |
| 2026-05-05 18:50 | 51.91272 | 7.34942 | 23854 ft | 426 kts | 321° |
| 2026-05-05 18:50 | 51.93613 | 7.32083 | 23859 ft | 428 kts | 321° |
| 2026-05-05 18:50 | 51.95999 | 7.29165 | 23855 ft | 430 kts | 321° |
| 2026-05-05 18:50 | 51.98418 | 7.26202 | 23854 ft | 429 kts | 321° |
| 2026-05-05 18:51 | 52.00771 | 7.23317 | 23860 ft | 429 kts | 320° |
| 2026-05-05 18:51 | 52.03149 | 7.20396 | 23859 ft | 429 kts | 320° |
| 2026-05-05 18:51 | 52.05534 | 7.17464 | 23859 ft | 429 kts | 320° |
| 2026-05-05 18:51 | 52.07912 | 7.14537 | 23859 ft | 428 kts | 320° |
| 2026-05-05 18:52 | 52.10280 | 7.11618 | 23857 ft | 427 kts | 320° |
| 2026-05-05 18:52 | 52.12602 | 7.08600 | 23859 ft | 425 kts | 313° |
| 2026-05-05 18:52 | 52.14454 | 7.04896 | 23873 ft | 420 kts | 297° |
| 2026-05-05 18:52 | 52.15697 | 7.00645 | 23872 ft | 416 kts | 289° |
| 2026-05-05 18:53 | 52.16797 | 6.96268 | 23835 ft | 416 kts | 289° |
| 2026-05-05 18:53 | 52.17893 | 6.91896 | 23635 ft | 416 kts | 289° |
| 2026-05-05 18:53 | 52.18989 | 6.87540 | 23417 ft | 412 kts | 289° |
| 2026-05-05 18:53 | 52.20057 | 6.83307 | 23143 ft | 407 kts | 289° |
| 2026-05-05 18:54 | 52.21132 | 6.79047 | 22864 ft | 405 kts | 289° |
| 2026-05-05 18:54 | 52.22206 | 6.74782 | 22598 ft | 405 kts | 289° |
| 2026-05-05 18:54 | 52.23276 | 6.70528 | 22331 ft | 404 kts | 289° |
| 2026-05-05 18:54 | 52.24340 | 6.66291 | 22064 ft | 402 kts | 290° |
| 2026-05-05 18:55 | 52.25398 | 6.62071 | 21796 ft | 400 kts | 290° |
| 2026-05-05 18:55 | 52.26447 | 6.57875 | 21536 ft | 399 kts | 290° |
| 2026-05-05 18:55 | 52.27493 | 6.53688 | 21276 ft | 398 kts | 290° |
| 2026-05-05 18:55 | 52.28533 | 6.49511 | 20965 ft | 397 kts | 290° |
| 2026-05-05 18:56 | 52.29560 | 6.45381 | 20448 ft | 397 kts | 290° |
| 2026-05-05 18:56 | 52.30598 | 6.41206 | 19920 ft | 394 kts | 290° |
| 2026-05-05 18:56 | 52.31277 | 6.38463 | 19561 ft | 391 kts | 290° |
| 2026-05-05 18:56 | 52.32634 | 6.32981 | 18868 ft | 387 kts | 290° |
| 2026-05-05 18:57 | 52.33299 | 6.30282 | 18523 ft | 384 kts | 291° |
| 2026-05-05 18:57 | 52.34294 | 6.26242 | 17950 ft | 382 kts | 291° |
| 2026-05-05 18:57 | 52.35279 | 6.22237 | 17439 ft | 377 kts | 291° |
| 2026-05-05 18:57 | 52.36253 | 6.18272 | 16918 ft | 373 kts | 291° |
| 2026-05-05 18:58 | 52.37214 | 6.14354 | 16406 ft | 369 kts | 291° |
| 2026-05-05 18:58 | 52.38166 | 6.10474 | 15901 ft | 365 kts | 291° |
| 2026-05-05 18:58 | 52.39103 | 6.06637 | 15385 ft | 362 kts | 291° |
| 2026-05-05 18:58 | 52.40033 | 6.02826 | 14882 ft | 359 kts | 291° |
| 2026-05-05 18:59 | 52.40943 | 5.99090 | 14373 ft | 356 kts | 291° |
| 2026-05-05 18:59 | 52.41857 | 5.95333 | 13884 ft | 354 kts | 291° |
| 2026-05-05 18:59 | 52.42767 | 5.91590 | 13358 ft | 351 kts | 291° |
| 2026-05-05 18:59 | 52.43664 | 5.87890 | 12868 ft | 347 kts | 291° |
| 2026-05-05 19:00 | 52.44548 | 5.84239 | 12391 ft | 342 kts | 291° |
| 2026-05-05 19:00 | 52.45417 | 5.80650 | 11902 ft | 339 kts | 291° |
| 2026-05-05 19:00 | 52.46287 | 5.77055 | 11440 ft | 335 kts | 291° |
| 2026-05-05 19:00 | 52.47142 | 5.73514 | 10982 ft | 332 kts | 291° |
| 2026-05-05 19:01 | 52.47987 | 5.70004 | 10495 ft | 330 kts | 291° |
| 2026-05-05 19:01 | 52.48811 | 5.66573 | 10207 ft | 321 kts | 291° |
| 2026-05-05 19:01 | 52.49614 | 5.63224 | 10086 ft | 308 kts | 291° |
| 2026-05-05 19:01 | 52.50370 | 5.60021 | 9983 ft | 295 kts | 288° |
| 2026-05-05 19:02 | 52.50602 | 5.56749 | 9735 ft | 286 kts | 262° |
| 2026-05-05 19:02 | 52.49962 | 5.53723 | 9602 ft | 284 kts | 239° |
| 2026-05-05 19:02 | 52.48935 | 5.50934 | 9381 ft | 288 kts | 239° |
| 2026-05-05 19:02 | 52.47900 | 5.48142 | 9123 ft | 284 kts | 239° |
| 2026-05-05 19:03 | 52.46882 | 5.45396 | 8879 ft | 283 kts | 240° |
| 2026-05-05 19:03 | 52.45854 | 5.42614 | 8627 ft | 285 kts | 239° |
| 2026-05-05 19:03 | 52.44832 | 5.39843 | 8369 ft | 282 kts | 240° |
| 2026-05-05 19:03 | 52.43816 | 5.37089 | 8125 ft | 282 kts | 240° |
| 2026-05-05 19:04 | 52.42800 | 5.34342 | 7877 ft | 281 kts | 240° |
| 2026-05-05 19:04 | 52.41787 | 5.31601 | 7624 ft | 280 kts | 240° |
| 2026-05-05 19:04 | 52.40788 | 5.28905 | 7377 ft | 280 kts | 240° |
| 2026-05-05 19:04 | 52.39781 | 5.26171 | 7130 ft | 279 kts | 240° |
| 2026-05-05 19:05 | 52.38794 | 5.23448 | 6945 ft | 277 kts | 240° |
| 2026-05-05 19:05 | 52.37813 | 5.20723 | 6908 ft | 277 kts | 240° |
| 2026-05-05 19:05 | 52.36804 | 5.18013 | 6908 ft | 280 kts | 239° |
| 2026-05-05 19:05 | 52.35777 | 5.15313 | 6913 ft | 279 kts | 239° |
| 2026-05-05 19:06 | 52.34762 | 5.12647 | 6902 ft | 279 kts | 239° |
| 2026-05-05 19:06 | 52.33789 | 5.09916 | 6898 ft | 277 kts | 250° |
| 2026-05-05 19:06 | 52.33470 | 5.06851 | 6909 ft | 275 kts | 276° |
| 2026-05-05 19:06 | 52.34036 | 5.03909 | 6907 ft | 272 kts | 303° |
| 2026-05-05 19:07 | 52.35353 | 5.01721 | 6910 ft | 271 kts | 326° |
| 2026-05-05 19:07 | 52.36924 | 5.00024 | 6909 ft | 269 kts | 327° |
| 2026-05-05 19:07 | 52.38492 | 4.98350 | 6905 ft | 271 kts | 328° |
| 2026-05-05 19:07 | 52.40069 | 4.96664 | 6904 ft | 271 kts | 327° |
| 2026-05-05 19:08 | 52.41640 | 4.94968 | 6905 ft | 268 kts | 328° |
| 2026-05-05 19:08 | 52.43139 | 4.93171 | 7034 ft | 269 kts | 315° |
| 2026-05-05 19:08 | 52.44109 | 4.90581 | 7257 ft | 273 kts | 290° |
| 2026-05-05 19:08 | 52.44283 | 4.87492 | 7274 ft | 276 kts | 263° |
| 2026-05-05 19:09 | 52.43618 | 4.84525 | 7056 ft | 281 kts | 243° |
| 2026-05-05 19:09 | 52.42659 | 4.81759 | 6924 ft | 280 kts | 242° |
| 2026-05-05 19:09 | 52.41702 | 4.78984 | 6909 ft | 281 kts | 242° |
| 2026-05-05 19:09 | 52.40749 | 4.76199 | 6915 ft | 280 kts | 242° |
| 2026-05-05 19:10 | 52.39801 | 4.73410 | 6913 ft | 281 kts | 243° |
| 2026-05-05 19:10 | 52.38839 | 4.70607 | 6914 ft | 282 kts | 243° |
| 2026-05-05 19:10 | 52.37866 | 4.67810 | 6903 ft | 283 kts | 242° |
| 2026-05-05 19:10 | 52.36903 | 4.65023 | 6831 ft | 279 kts | 242° |
| 2026-05-05 19:11 | 52.35948 | 4.62257 | 6508 ft | 278 kts | 242° |
| 2026-05-05 19:11 | 52.35002 | 4.59499 | 6100 ft | 279 kts | 242° |
| 2026-05-05 19:11 | 52.34041 | 4.56735 | 5562 ft | 283 kts | 242° |
| 2026-05-05 19:11 | 52.33066 | 4.53941 | 5144 ft | 284 kts | 242° |
| 2026-05-05 19:12 | 52.32070 | 4.51118 | 4709 ft | 285 kts | 242° |
| 2026-05-05 19:12 | 52.31107 | 4.48374 | 4400 ft | 281 kts | 242° |
| 2026-05-05 19:12 | 52.30142 | 4.45640 | 4181 ft | 274 kts | 238° |
| 2026-05-05 19:12 | 52.28925 | 4.43622 | 4055 ft | 266 kts | 211° |
| 2026-05-05 19:13 | 52.27227 | 4.42702 | 3925 ft | 252 kts | 180° |
| 2026-05-05 19:13 | 52.25572 | 4.43211 | 3668 ft | 239 kts | 149° |
| 2026-05-05 19:13 | 52.24153 | 4.44619 | 3283 ft | 238 kts | 142° |
| 2026-05-05 19:13 | 52.22769 | 4.46092 | 2936 ft | 237 kts | 142° |
| 2026-05-05 19:14 | 52.21563 | 4.47826 | 2594 ft | 227 kts | 117° |
| 2026-05-05 19:14 | 52.21101 | 4.50133 | 2478 ft | 206 kts | 92° |
| 2026-05-05 19:14 | 52.21101 | 4.52371 | 2376 ft | 189 kts | 75° |
| 2026-05-05 19:14 | 52.21469 | 4.54288 | 2351 ft | 170 kts | 62° |
| 2026-05-05 19:15 | 52.21988 | 4.55932 | 2251 ft | 155 kts | 57° |
| 2026-05-05 19:15 | 52.22518 | 4.57362 | 2146 ft | 140 kts | 55° |
| 2026-05-05 19:15 | 52.23012 | 4.58641 | 2047 ft | 127 kts | 54° |
| 2026-05-05 19:15 | 52.23459 | 4.59790 | 1996 ft | 120 kts | 54° |
| 2026-05-05 19:16 | 52.23917 | 4.60960 | 1861 ft | 121 kts | 55° |
| 2026-05-05 19:16 | 52.24359 | 4.62097 | 1710 ft | 120 kts | 53° |
| 2026-05-05 19:16 | 52.24806 | 4.63240 | 1530 ft | 122 kts | 54° |
| 2026-05-05 19:16 | 52.25253 | 4.64391 | 1362 ft | 120 kts | 54° |
| 2026-05-05 19:17 | 52.25702 | 4.65542 | 1192 ft | 119 kts | 55° |
| 2026-05-05 19:17 | 52.26139 | 4.66665 | 1031 ft | 116 kts | 54° |
| 2026-05-05 19:17 | 52.26582 | 4.67801 | 860 ft | 118 kts | 54° |
| 2026-05-05 19:17 | 52.27033 | 4.68957 | 712 ft | 123 kts | 53° |
| 2026-05-05 19:18 | 52.27503 | 4.70163 | 545 ft | 130 kts | 54° |
| 2026-05-05 19:18 | 52.27959 | 4.71343 | 376 ft | 123 kts | 51° |
| 2026-05-05 19:18 | 52.28443 | 4.72581 | 202 ft | 124 kts | 52° |
| 2026-05-05 19:18 | 52.28927 | 4.73757 | 63 ft | 127 kts | 52° |
| 2026-05-05 19:19 | 52.29396 | 4.74960 | 18 ft | 114 kts | 58° |
| 2026-05-05 19:19 | 52.29730 | 4.75842 | 14 ft | 69 kts | 58° |
| 2026-05-05 19:19 | 52.29931 | 4.76375 | 12 ft | 42 kts | 59° |
| 2026-05-05 19:19 | 52.30016 | 4.76523 | 16 ft | 13 kts | 31° |
| 2026-05-05 19:20 | 52.30101 | 4.76598 | 15 ft | 14 kts | 27° |
| 2026-05-05 19:20 | 52.30177 | 4.76663 | 16 ft | 8 kts | 28° |
| 2026-05-05 19:20 | 52.30180 | 4.76666 | 18 ft | 0 kts | 28° |
| 2026-05-05 19:21 | 52.30185 | 4.76670 | 17 ft | 2 kts | 28° |
| 2026-05-05 19:21 | 52.30212 | 4.76693 | 17 ft | 6 kts | 28° |
| 2026-05-05 19:21 | 52.30266 | 4.76741 | 12 ft | 11 kts | 31° |
| 2026-05-05 19:22 | 52.30312 | 4.76816 | 11 ft | 7 kts | 57° |
| 2026-05-05 19:22 | 52.30341 | 4.76891 | 11 ft | 9 kts | 58° |
| 2026-05-05 19:22 | 52.30378 | 4.76989 | 10 ft | 11 kts | 58° |
| 2026-05-05 19:22 | 52.30423 | 4.77103 | 9 ft | 10 kts | 57° |
| 2026-05-05 19:23 | 52.30448 | 4.77172 | 11 ft | 6 kts | 59° |
| 2026-05-05 19:23 | 52.30473 | 4.77238 | 11 ft | 8 kts | 58° |
| 2026-05-05 19:23 | 52.30506 | 4.77324 | 11 ft | 10 kts | 58° |
| 2026-05-05 19:23 | 52.30537 | 4.77408 | 11 ft | 9 kts | 58° |
| 2026-05-05 19:24 | 52.30564 | 4.77477 | 14 ft | 6 kts | 56° |
| 2026-05-05 19:24 | 52.30594 | 4.77537 | 14 ft | 8 kts | 45° |
| 2026-05-05 19:24 | 52.30647 | 4.77582 | 15 ft | 10 kts | 14° |
| 2026-05-05 19:24 | 52.30721 | 4.77594 | 13 ft | 11 kts | 3° |
| 2026-05-05 19:25 | 52.30806 | 4.77600 | 13 ft | 13 kts | 2° |
| 2026-05-05 19:25 | 52.30883 | 4.77606 | 12 ft | 12 kts | 3° |
| 2026-05-05 19:25 | 52.30956 | 4.77613 | 12 ft | 11 kts | 4° |
| 2026-05-05 19:25 | 52.31032 | 4.77622 | 13 ft | 11 kts | 3° |
| 2026-05-05 19:26 | 52.31109 | 4.77628 | 13 ft | 10 kts | 4° |
| 2026-05-05 19:26 | 52.31179 | 4.77636 | 12 ft | 11 kts | 4° |
| 2026-05-05 19:26 | 52.31258 | 4.77643 | 13 ft | 11 kts | 3° |
| 2026-05-05 19:26 | 52.31328 | 4.77649 | 15 ft | 9 kts | 3° |
| 2026-05-05 19:27 | 52.31395 | 4.77653 | 15 ft | 11 kts | 0° |
| 2026-05-05 19:27 | 52.31465 | 4.77623 | 13 ft | 11 kts | 332° |
| 2026-05-05 19:27 | 52.31517 | 4.77555 | 11 ft | 10 kts | 315° |
| 2026-05-05 19:27 | 52.31557 | 4.77481 | 12 ft | 7 kts | 304° |
| 2026-05-05 19:28 | 52.31577 | 4.77387 | 13 ft | 11 kts | 278° |
| 2026-05-05 19:28 | 52.31576 | 4.77232 | 9 ft | 16 kts | 268° |
| 2026-05-05 19:28 | 52.31570 | 4.77078 | 9 ft | 13 kts | 266° |
| 2026-05-05 19:28 | 52.31564 | 4.76935 | 11 ft | 8 kts | 266° |
| 2026-05-05 19:29 | 52.31563 | 4.76900 | 11 ft | 2 kts | 266° |
| 2026-05-05 19:29 | 52.31561 | 4.76858 | 12 ft | 6 kts | 266° |
| 2026-05-05 19:29 | 52.31559 | 4.76768 | 11 ft | 10 kts | 269° |
| 2026-05-05 19:29 | 52.31555 | 4.76652 | 13 ft | 11 kts | 265° |
| 2026-05-05 19:30 | 52.31552 | 4.76537 | 16 ft | 9 kts | 267° |
| 2026-05-05 19:30 | 52.31548 | 4.76422 | 18 ft | 11 kts | 267° |
| 2026-05-05 19:30 | 52.31543 | 4.76276 | 16 ft | 14 kts | 266° |
| 2026-05-05 19:30 | 52.31537 | 4.76116 | 17 ft | 15 kts | 266° |
| 2026-05-05 19:31 | 52.31531 | 4.75933 | 17 ft | 17 kts | 266° |
| 2026-05-05 19:31 | 52.31524 | 4.75744 | 11 ft | 17 kts | 267° |
| 2026-05-05 19:31 | 52.31519 | 4.75588 | 11 ft | 10 kts | 267° |
| 2026-05-05 19:31 | 52.31510 | 4.75493 | 11 ft | 8 kts | 244° |
| 2026-05-05 19:32 | 52.31449 | 4.75468 | 9 ft | 9 kts | 176° |
| 2026-05-05 19:32 | 52.31375 | 4.75477 | 8 ft | 8 kts | 176° |
| 2026-05-05 19:32 | 52.31313 | 4.75477 | 6 ft | 6 kts | 180° |
| 2026-05-05 19:32 | 52.31254 | 4.75485 | 5 ft | 11 kts | 173° |
| 2026-05-05 19:33 | 52.31170 | 4.75497 | 4 ft | 13 kts | 177° |
| 2026-05-05 19:33 | 52.31123 | 4.75495 | 0 ft | 4 kts | 191° |
| 2026-05-05 19:33 | 52.31106 | 4.75483 | -1 ft | 3 kts | 208° |
| 2026-05-05 19:33 | 52.31077 | 4.75486 | -1 ft | 6 kts | 156° |
| 2026-05-05 19:34 | 52.31049 | 4.75511 | -3 ft | 0 kts | 150° |